sensor_id;sensor_type;location;lat;lon;timestamp;pressure;altitude;pressure_sealevel;temperature;humidity
8294;BME280;4185;41.506;24.938;2022-11-27T00:02:23;94382.28;;;1.03;83.50
8294;BME280;4185;41.506;24.938;2022-11-27T00:04:50;94377.28;;;1.05;83.52
8294;BME280;4185;41.506;24.938;2022-11-27T00:07:17;94382.56;;;1.08;83.51
8294;BME280;4185;41.506;24.938;2022-11-27T00:09:44;94388.69;;;1.09;83.66
8294;BME280;4185;41.506;24.938;2022-11-27T00:12:12;94381.38;;;1.13;83.72
8294;BME280;4185;41.506;24.938;2022-11-27T00:14:39;94377.94;;;1.12;83.40
8294;BME280;4185;41.506;24.938;2022-11-27T00:17:06;94372.03;;;0.98;84.45
8294;BME280;4185;41.506;24.938;2022-11-27T00:19:33;94378.09;;;1.02;84.51
8294;BME280;4185;41.506;24.938;2022-11-27T00:21:59;94380.72;;;1.05;84.19
8294;BME280;4185;41.506;24.938;2022-11-27T00:24:26;94381.78;;;1.11;84.51
8294;BME280;4185;41.506;24.938;2022-11-27T00:26:53;94379.41;;;1.17;84.08
8294;BME280;4185;41.506;24.938;2022-11-27T00:29:21;94386.19;;;1.25;83.87
8294;BME280;4185;41.506;24.938;2022-11-27T00:31:48;94389.59;;;1.25;83.29
8294;BME280;4185;41.506;24.938;2022-11-27T00:34:15;94386.97;;;1.22;83.58
8294;BME280;4185;41.506;24.938;2022-11-27T00:36:41;94376.28;;;1.22;83.75
8294;BME280;4185;41.506;24.938;2022-11-27T00:39:08;94369.31;;;1.28;83.57
8294;BME280;4185;41.506;24.938;2022-11-27T00:41:35;94365.47;;;1.29;83.64
8294;BME280;4185;41.506;24.938;2022-11-27T00:44:03;94358.56;;;1.32;84.05
8294;BME280;4185;41.506;24.938;2022-11-27T00:46:33;94364.78;;;1.25;84.27
8294;BME280;4185;41.506;24.938;2022-11-27T00:49:02;94373.09;;;1.31;84.38
8294;BME280;4185;41.506;24.938;2022-11-27T00:51:29;94381.53;;;1.29;84.40
8294;BME280;4185;41.506;24.938;2022-11-27T00:53:56;94381.16;;;1.27;84.96
8294;BME280;4185;41.506;24.938;2022-11-27T00:56:25;94380.03;;;1.28;84.83
8294;BME280;4185;41.506;24.938;2022-11-27T00:58:52;94372.34;;;1.30;84.58
8294;BME280;4185;41.506;24.938;2022-11-27T01:01:21;94372.41;;;1.27;84.69
8294;BME280;4185;41.506;24.938;2022-11-27T01:03:50;94368.09;;;1.33;84.45
8294;BME280;4185;41.506;24.938;2022-11-27T01:06:18;94363.16;;;1.31;84.95
8294;BME280;4185;41.506;24.938;2022-11-27T01:08:45;94364.66;;;1.32;84.70
8294;BME280;4185;41.506;24.938;2022-11-27T01:11:17;94360.06;;;1.33;84.57
8294;BME280;4185;41.506;24.938;2022-11-27T01:13:44;94361.22;;;1.32;84.79
8294;BME280;4185;41.506;24.938;2022-11-27T01:16:13;94356.97;;;1.34;84.88
8294;BME280;4185;41.506;24.938;2022-11-27T01:18:41;94355.53;;;1.30;84.68
8294;BME280;4185;41.506;24.938;2022-11-27T01:21:11;94358.16;;;1.33;84.31
8294;BME280;4185;41.506;24.938;2022-11-27T01:23:38;94356.34;;;1.27;85.26
8294;BME280;4185;41.506;24.938;2022-11-27T01:26:06;94343.69;;;1.27;85.19
8294;BME280;4185;41.506;24.938;2022-11-27T01:28:34;94342.09;;;1.33;85.15
8294;BME280;4185;41.506;24.938;2022-11-27T01:31:03;94337.88;;;1.32;85.14
8294;BME280;4185;41.506;24.938;2022-11-27T01:33:30;94342.91;;;1.30;85.57
8294;BME280;4185;41.506;24.938;2022-11-27T01:35:59;94345.91;;;1.32;85.62
8294;BME280;4185;41.506;24.938;2022-11-27T01:38:28;94343.25;;;1.32;85.88
8294;BME280;4185;41.506;24.938;2022-11-27T01:40:56;94340.56;;;1.32;85.50
8294;BME280;4185;41.506;24.938;2022-11-27T01:43:37;94340.22;;;1.30;85.72
8294;BME280;4185;41.506;24.938;2022-11-27T01:46:05;94349.41;;;1.29;85.90
8294;BME280;4185;41.506;24.938;2022-11-27T01:48:36;94346.38;;;1.27;85.90
8294;BME280;4185;41.506;24.938;2022-11-27T01:51:04;94347.19;;;1.24;86.32
8294;BME280;4185;41.506;24.938;2022-11-27T01:53:32;94346.44;;;1.23;86.57
8294;BME280;4185;41.506;24.938;2022-11-27T01:56:00;94342.16;;;1.30;86.68
8294;BME280;4185;41.506;24.938;2022-11-27T01:58:28;94351.97;;;1.36;86.59
8294;BME280;4185;41.506;24.938;2022-11-27T02:00:56;94352.34;;;1.38;86.63
8294;BME280;4185;41.506;24.938;2022-11-27T02:03:24;94350.47;;;1.35;86.58
8294;BME280;4185;41.506;24.938;2022-11-27T02:05:50;94349.41;;;1.29;87.36
8294;BME280;4185;41.506;24.938;2022-11-27T02:08:17;94346.72;;;1.29;87.12
8294;BME280;4185;41.506;24.938;2022-11-27T02:10:51;94342.59;;;1.24;87.55
8294;BME280;4185;41.506;24.938;2022-11-27T02:13:24;94341.16;;;1.20;87.58
8294;BME280;4185;41.506;24.938;2022-11-27T02:15:59;94335.91;;;1.13;87.54
8294;BME280;4185;41.506;24.938;2022-11-27T02:18:33;94338.13;;;1.18;87.67
8294;BME280;4185;41.506;24.938;2022-11-27T02:21:06;94344.97;;;1.19;87.39
8294;BME280;4185;41.506;24.938;2022-11-27T02:24:09;94347.97;;;1.24;87.47
8294;BME280;4185;41.506;24.938;2022-11-27T02:29:53;94342.19;;;1.26;87.20
8294;BME280;4185;41.506;24.938;2022-11-27T02:32:26;94349.34;;;1.33;87.59
8294;BME280;4185;41.506;24.938;2022-11-27T02:34:58;94353.84;;;1.39;87.32
8294;BME280;4185;41.506;24.938;2022-11-27T02:37:32;94349.31;;;1.36;87.31
8294;BME280;4185;41.506;24.938;2022-11-27T02:40:02;94346.13;;;1.45;87.15
8294;BME280;4185;41.506;24.938;2022-11-27T02:42:32;94348.75;;;1.48;87.04
8294;BME280;4185;41.506;24.938;2022-11-27T02:45:06;94355.25;;;1.47;86.91
8294;BME280;4185;41.506;24.938;2022-11-27T02:47:37;94352.19;;;1.49;86.69
8294;BME280;4185;41.506;24.938;2022-11-27T02:50:09;94350.59;;;1.51;86.69
8294;BME280;4185;41.506;24.938;2022-11-27T02:52:38;94354.09;;;1.48;86.70
8294;BME280;4185;41.506;24.938;2022-11-27T02:55:07;94350.69;;;1.44;86.94
8294;BME280;4185;41.506;24.938;2022-11-27T02:57:39;94352.22;;;1.45;87.43
8294;BME280;4185;41.506;24.938;2022-11-27T03:00:10;94354.50;;;1.47;87.40
8294;BME280;4185;41.506;24.938;2022-11-27T03:02:40;94360.63;;;1.47;87.52
8294;BME280;4185;41.506;24.938;2022-11-27T03:05:10;94350.66;;;1.48;87.34
8294;BME280;4185;41.506;24.938;2022-11-27T03:07:42;94342.31;;;1.42;87.63
8294;BME280;4185;41.506;24.938;2022-11-27T03:10:15;94349.91;;;1.47;87.56
8294;BME280;4185;41.506;24.938;2022-11-27T03:12:44;94354.09;;;1.48;87.84
8294;BME280;4185;41.506;24.938;2022-11-27T03:15:13;94347.63;;;1.46;87.56
8294;BME280;4185;41.506;24.938;2022-11-27T03:17:47;94347.63;;;1.46;87.87
8294;BME280;4185;41.506;24.938;2022-11-27T03:20:19;94349.19;;;1.43;88.26
8294;BME280;4185;41.506;24.938;2022-11-27T03:22:47;94356.09;;;1.41;88.26
8294;BME280;4185;41.506;24.938;2022-11-27T03:25:13;94357.69;;;1.38;88.47
8294;BME280;4185;41.506;24.938;2022-11-27T03:27:46;94354.19;;;1.41;88.45
8294;BME280;4185;41.506;24.938;2022-11-27T03:30:15;94362.22;;;1.41;87.99
8294;BME280;4185;41.506;24.938;2022-11-27T03:32:42;94353.38;;;1.44;88.19
8294;BME280;4185;41.506;24.938;2022-11-27T03:35:11;94355.94;;;1.51;88.12
8294;BME280;4185;41.506;24.938;2022-11-27T03:37:39;94359.75;;;1.54;88.03
8294;BME280;4185;41.506;24.938;2022-11-27T03:40:07;94368.94;;;1.53;88.30
8294;BME280;4185;41.506;24.938;2022-11-27T03:42:42;94373.13;;;1.54;88.18
8294;BME280;4185;41.506;24.938;2022-11-27T03:45:19;94355.13;;;1.54;87.77
8294;BME280;4185;41.506;24.938;2022-11-27T03:47:58;94344.47;;;1.51;88.09
8294;BME280;4185;41.506;24.938;2022-11-27T03:50:36;94343.69;;;1.54;88.30
8294;BME280;4185;41.506;24.938;2022-11-27T03:53:18;94356.66;;;1.55;87.97
8294;BME280;4185;41.506;24.938;2022-11-27T03:55:49;94352.81;;;1.56;88.50
8294;BME280;4185;41.506;24.938;2022-11-27T03:58:22;94349.09;;;1.50;88.65
8294;BME280;4185;41.506;24.938;2022-11-27T04:00:54;94359.03;;;1.50;88.11
8294;BME280;4185;41.506;24.938;2022-11-27T04:03:24;94359.09;;;1.46;89.04
8294;BME280;4185;41.506;24.938;2022-11-27T04:05:51;94357.59;;;1.45;89.40
8294;BME280;4185;41.506;24.938;2022-11-27T04:08:19;94357.53;;;1.49;89.63
8294;BME280;4185;41.506;24.938;2022-11-27T04:10:46;94368.94;;;1.53;88.95
8294;BME280;4185;41.506;24.938;2022-11-27T04:13:13;94376.53;;;1.54;89.03
8294;BME280;4185;41.506;24.938;2022-11-27T04:15:40;94372.00;;;1.51;88.45
8294;BME280;4185;41.506;24.938;2022-11-27T04:18:08;94369.69;;;1.53;89.00
8294;BME280;4185;41.506;24.938;2022-11-27T04:20:35;94365.84;;;1.54;88.90
8294;BME280;4185;41.506;24.938;2022-11-27T04:23:02;94370.47;;;1.54;89.02
8294;BME280;4185;41.506;24.938;2022-11-27T04:25:29;94363.53;;;1.56;89.20
8294;BME280;4185;41.506;24.938;2022-11-27T04:27:56;94370.41;;;1.57;89.41
8294;BME280;4185;41.506;24.938;2022-11-27T04:30:24;94366.56;;;1.58;89.20
8294;BME280;4185;41.506;24.938;2022-11-27T04:32:51;94370.34;;;1.61;89.38
8294;BME280;4185;41.506;24.938;2022-11-27T04:35:19;94372.63;;;1.62;89.29
8294;BME280;4185;41.506;24.938;2022-11-27T04:37:46;94368.81;;;1.60;89.51
8294;BME280;4185;41.506;24.938;2022-11-27T04:40:13;94371.44;;;1.63;89.02
8294;BME280;4185;41.506;24.938;2022-11-27T04:42:40;94377.16;;;1.65;89.27
8294;BME280;4185;41.506;24.938;2022-11-27T04:45:07;94379.41;;;1.67;89.25
8294;BME280;4185;41.506;24.938;2022-11-27T04:47:34;94388.63;;;1.66;89.57
8294;BME280;4185;41.506;24.938;2022-11-27T04:50:01;94384.81;;;1.63;89.66
8294;BME280;4185;41.506;24.938;2022-11-27T04:52:29;94382.56;;;1.62;89.52
8294;BME280;4185;41.506;24.938;2022-11-27T04:54:56;94389.16;;;1.57;89.28
8294;BME280;4185;41.506;24.938;2022-11-27T04:57:23;94386.47;;;1.57;90.00
8294;BME280;4185;41.506;24.938;2022-11-27T04:59:49;94386.47;;;1.57;90.13
8294;BME280;4185;41.506;24.938;2022-11-27T05:02:16;94389.47;;;1.59;89.78
8294;BME280;4185;41.506;24.938;2022-11-27T05:04:43;94387.56;;;1.60;90.02
8294;BME280;4185;41.506;24.938;2022-11-27T05:07:10;94388.28;;;1.64;90.20
8294;BME280;4185;41.506;24.938;2022-11-27T05:09:38;94389.38;;;1.66;90.10
8294;BME280;4185;41.506;24.938;2022-11-27T05:12:05;94376.38;;;1.65;89.83
8294;BME280;4185;41.506;24.938;2022-11-27T05:14:32;94370.25;;;1.64;89.89
8294;BME280;4185;41.506;24.938;2022-11-27T05:16:59;94384.81;;;1.63;89.60
8294;BME280;4185;41.506;24.938;2022-11-27T05:19:27;94388.69;;;1.62;89.71
8294;BME280;4185;41.506;24.938;2022-11-27T05:21:55;94392.16;;;1.59;90.05
8294;BME280;4185;41.506;24.938;2022-11-27T05:24:23;94385.66;;;1.60;90.06
8294;BME280;4185;41.506;24.938;2022-11-27T05:26:52;94382.56;;;1.62;90.23
8294;BME280;4185;41.506;24.938;2022-11-27T05:29:20;94387.16;;;1.61;90.13
8294;BME280;4185;41.506;24.938;2022-11-27T05:31:47;94390.28;;;1.56;90.56
8294;BME280;4185;41.506;24.938;2022-11-27T05:34:14;94396.56;;;1.46;90.43
8294;BME280;4185;41.506;24.938;2022-11-27T05:36:41;94389.59;;;1.52;91.22
8294;BME280;4185;41.506;24.938;2022-11-27T05:39:09;94389.47;;;1.59;91.01
8294;BME280;4185;41.506;24.938;2022-11-27T05:41:37;94397.44;;;1.63;90.81
8294;BME280;4185;41.506;24.938;2022-11-27T05:44:06;94395.94;;;1.62;90.76
8294;BME280;4185;41.506;24.938;2022-11-27T05:46:33;94397.03;;;1.64;90.91
8294;BME280;4185;41.506;24.938;2022-11-27T05:48:59;94394.66;;;1.70;90.51
8294;BME280;4185;41.506;24.938;2022-11-27T05:51:28;94397.34;;;1.70;90.58
8294;BME280;4185;41.506;24.938;2022-11-27T05:53:55;94400.03;;;1.70;90.54
8294;BME280;4185;41.506;24.938;2022-11-27T05:56:21;94396.94;;;1.71;90.54
8294;BME280;4185;41.506;24.938;2022-11-27T05:58:48;94390.44;;;1.72;90.12
8294;BME280;4185;41.506;24.938;2022-11-27T06:01:18;94398.41;;;1.76;90.30
8294;BME280;4185;41.506;24.938;2022-11-27T06:03:45;94406.38;;;1.79;90.44
8294;BME280;4185;41.506;24.938;2022-11-27T06:06:14;94406.72;;;1.81;89.87
8294;BME280;4185;41.506;24.938;2022-11-27T06:08:41;94408.25;;;1.82;89.80
8294;BME280;4185;41.506;24.938;2022-11-27T06:11:10;94405.94;;;1.84;89.85
8294;BME280;4185;41.506;24.938;2022-11-27T06:13:37;94408.94;;;1.86;89.51
8294;BME280;4185;41.506;24.938;2022-11-27T06:16:05;94415.06;;;1.87;89.71
8294;BME280;4185;41.506;24.938;2022-11-27T06:18:34;94412.78;;;1.85;90.06
8294;BME280;4185;41.506;24.938;2022-11-27T06:21:05;94412.69;;;1.92;90.13
8294;BME280;4185;41.506;24.938;2022-11-27T06:23:32;94415.66;;;1.98;89.41
8294;BME280;4185;41.506;24.938;2022-11-27T06:26:08;94403.63;;;2.06;89.18
8294;BME280;4185;41.506;24.938;2022-11-27T06:28:35;94399.72;;;2.10;89.26
8294;BME280;4185;41.506;24.938;2022-11-27T06:31:04;94392.81;;;2.13;88.76
8294;BME280;4185;41.506;24.938;2022-11-27T06:33:31;94388.41;;;2.22;88.26
8294;BME280;4185;41.506;24.938;2022-11-27T06:35:59;94396.34;;;2.29;88.52
8294;BME280;4185;41.506;24.938;2022-11-27T06:38:26;94395.03;;;2.37;87.99
8294;BME280;4185;41.506;24.938;2022-11-27T06:40:53;94395.03;;;2.37;87.91
8294;BME280;4185;41.506;24.938;2022-11-27T06:43:20;94398.53;;;2.34;88.13
8294;BME280;4185;41.506;24.938;2022-11-27T06:45:54;94408.72;;;2.43;88.21
8294;BME280;4185;41.506;24.938;2022-11-27T06:48:21;94405.56;;;2.48;88.75
8294;BME280;4185;41.506;24.938;2022-11-27T06:50:47;94400.47;;;2.54;88.51
8294;BME280;4185;41.506;24.938;2022-11-27T06:53:16;94403.09;;;2.57;88.24
8294;BME280;4185;41.506;24.938;2022-11-27T06:55:43;94412.28;;;2.56;87.61
8294;BME280;4185;41.506;24.938;2022-11-27T06:58:10;94413.81;;;2.57;88.00
8294;BME280;4185;41.506;24.938;2022-11-27T07:00:37;94411.47;;;2.59;88.30
8294;BME280;4185;41.506;24.938;2022-11-27T07:03:04;94418.28;;;2.64;88.45
8294;BME280;4185;41.506;24.938;2022-11-27T07:05:30;94420.56;;;2.65;87.66
8294;BME280;4185;41.506;24.938;2022-11-27T07:07:57;94413.94;;;2.70;87.39
8294;BME280;4185;41.506;24.938;2022-11-27T07:10:26;94408.81;;;2.79;87.30
8294;BME280;4185;41.506;24.938;2022-11-27T07:12:53;94416.38;;;2.84;87.18
8294;BME280;4185;41.506;24.938;2022-11-27T07:15:19;94418.56;;;2.89;87.36
8294;BME280;4185;41.506;24.938;2022-11-27T07:17:46;94418.00;;;2.97;87.25
8294;BME280;4185;41.506;24.938;2022-11-27T07:20:13;94410.56;;;3.05;86.64
8294;BME280;4185;41.506;24.938;2022-11-27T07:22:40;94420.06;;;3.09;87.17
8294;BME280;4185;41.506;24.938;2022-11-27T07:25:07;94413.28;;;3.21;85.92
8294;BME280;4185;41.506;24.938;2022-11-27T07:27:38;94415.50;;;3.26;85.37
8294;BME280;4185;41.506;24.938;2022-11-27T07:30:05;94412.50;;;3.40;85.13
8294;BME280;4185;41.506;24.938;2022-11-27T07:32:32;94409.56;;;3.50;85.02
8294;BME280;4185;41.506;24.938;2022-11-27T07:34:59;94405.72;;;3.51;84.96
8294;BME280;4185;41.506;24.938;2022-11-27T07:37:29;94406.47;;;3.52;84.02
8294;BME280;4185;41.506;24.938;2022-11-27T07:39:56;94407.06;;;3.59;84.58
8294;BME280;4185;41.506;24.938;2022-11-27T07:42:22;94402.09;;;3.74;84.70
8294;BME280;4185;41.506;24.938;2022-11-27T07:44:51;94401.78;;;3.88;83.62
8294;BME280;4185;41.506;24.938;2022-11-27T07:47:17;94393.03;;;4.00;82.87
8294;BME280;4185;41.506;24.938;2022-11-27T07:49:44;94394.53;;;4.01;83.46
8294;BME280;4185;41.506;24.938;2022-11-27T07:52:11;94403.78;;;4.00;82.98
8294;BME280;4185;41.506;24.938;2022-11-27T07:54:38;94401.44;;;4.02;82.78
8294;BME280;4185;41.506;24.938;2022-11-27T07:57:04;94397.66;;;4.00;82.25
8294;BME280;4185;41.506;24.938;2022-11-27T07:59:31;94398.47;;;4.13;82.40
8294;BME280;4185;41.506;24.938;2022-11-27T08:01:59;94400.03;;;4.26;82.06
8294;BME280;4185;41.506;24.938;2022-11-27T08:04:26;94392.31;;;4.28;70.52
8294;BME280;4185;41.506;24.938;2022-11-27T08:06:53;94399.88;;;4.33;71.92
8294;BME280;4185;41.506;24.938;2022-11-27T08:09:21;94411.22;;;4.41;74.46
8294;BME280;4185;41.506;24.938;2022-11-27T08:11:48;94405.75;;;4.44;70.91
8294;BME280;4185;41.506;24.938;2022-11-27T08:14:15;94407.91;;;4.49;70.48
8294;BME280;4185;41.506;24.938;2022-11-27T08:16:43;94410.09;;;4.54;70.42
8294;BME280;4185;41.506;24.938;2022-11-27T08:19:12;94410.34;;;4.60;67.96
8294;BME280;4185;41.506;24.938;2022-11-27T08:21:39;94404.34;;;4.68;68.50
8294;BME280;4185;41.506;24.938;2022-11-27T08:24:06;94404.22;;;4.72;67.53
8294;BME280;4185;41.506;24.938;2022-11-27T08:26:33;94400.59;;;4.78;66.74
8294;BME280;4185;41.506;24.938;2022-11-27T08:29:00;94397.81;;;4.82;64.47
8294;BME280;4185;41.506;24.938;2022-11-27T08:31:27;94395.56;;;4.93;64.63
8294;BME280;4185;41.506;24.938;2022-11-27T08:33:54;94402.16;;;5.05;63.39
8294;BME280;4185;41.506;24.938;2022-11-27T08:36:23;94392.38;;;5.11;61.12
8294;BME280;4185;41.506;24.938;2022-11-27T08:38:51;94382.44;;;5.08;60.38
8294;BME280;4185;41.506;24.938;2022-11-27T08:41:18;94382.91;;;5.19;61.09
8294;BME280;4185;41.506;24.938;2022-11-27T08:43:45;94378.06;;;5.26;60.98
8294;BME280;4185;41.506;24.938;2022-11-27T08:46:12;94382.38;;;5.36;61.71
8294;BME280;4185;41.506;24.938;2022-11-27T08:48:39;94372.91;;;5.32;60.30
8294;BME280;4185;41.506;24.938;2022-11-27T08:51:08;94371.19;;;5.38;59.30
8294;BME280;4185;41.506;24.938;2022-11-27T08:53:37;94361.06;;;5.29;58.64
8294;BME280;4185;41.506;24.938;2022-11-27T08:56:06;94363.41;;;5.40;60.16
8294;BME280;4185;41.506;24.938;2022-11-27T08:58:33;94354.38;;;5.46;59.18
8294;BME280;4185;41.506;24.938;2022-11-27T09:01:06;94350.50;;;5.47;58.83
8294;BME280;4185;41.506;24.938;2022-11-27T09:03:33;94358.13;;;5.49;58.21
8294;BME280;4185;41.506;24.938;2022-11-27T09:06:00;94360.06;;;5.48;58.68
8294;BME280;4185;41.506;24.938;2022-11-27T09:08:27;94355.88;;;5.47;58.99
8294;BME280;4185;41.506;24.938;2022-11-27T09:10:58;94351.56;;;5.50;57.84
8294;BME280;4185;41.506;24.938;2022-11-27T09:13:26;94345.09;;;5.47;58.37
8294;BME280;4185;41.506;24.938;2022-11-27T09:15:54;94338.41;;;5.52;57.75
8294;BME280;4185;41.506;24.938;2022-11-27T09:18:21;94344.66;;;5.49;56.67
8294;BME280;4185;41.506;24.938;2022-11-27T09:20:54;94346.16;;;5.50;56.01
8294;BME280;4185;41.506;24.938;2022-11-27T09:23:21;94340.47;;;5.48;56.14
8294;BME280;4185;41.506;24.938;2022-11-27T09:25:48;94329.69;;;5.48;55.90
8294;BME280;4185;41.506;24.938;2022-11-27T09:28:16;94320.53;;;5.58;55.31
8294;BME280;4185;41.506;24.938;2022-11-27T09:30:43;94319.88;;;5.54;54.08
8294;BME280;4185;41.506;24.938;2022-11-27T09:33:10;94322.47;;;5.57;54.99
8294;BME280;4185;41.506;24.938;2022-11-27T09:35:37;94316.63;;;5.59;53.88
8294;BME280;4185;41.506;24.938;2022-11-27T09:38:04;94315.56;;;5.56;53.29
8294;BME280;4185;41.506;24.938;2022-11-27T09:40:31;94313.94;;;5.59;54.12
8294;BME280;4185;41.506;24.938;2022-11-27T09:42:59;94309.19;;;5.63;54.57
8294;BME280;4185;41.506;24.938;2022-11-27T09:45:31;94305.31;;;5.64;55.05
8294;BME280;4185;41.506;24.938;2022-11-27T09:48:02;94308.31;;;5.66;54.71
8294;BME280;4185;41.506;24.938;2022-11-27T09:50:34;94311.56;;;5.61;52.26
8294;BME280;4185;41.506;24.938;2022-11-27T09:53:19;94299.41;;;5.56;52.86
8294;BME280;4185;41.506;24.938;2022-11-27T09:55:50;94294.75;;;5.57;52.81
8294;BME280;4185;41.506;24.938;2022-11-27T09:58:22;94295.63;;;5.54;52.37
8294;BME280;4185;41.506;24.938;2022-11-27T10:00:53;94294.00;;;5.56;52.65
8294;BME280;4185;41.506;24.938;2022-11-27T10:03:25;94293.03;;;5.63;53.50
8294;BME280;4185;41.506;24.938;2022-11-27T10:06:01;94285.88;;;5.69;53.11
8294;BME280;4185;41.506;24.938;2022-11-27T10:08:35;94281.16;;;5.73;52.99
8294;BME280;4185;41.506;24.938;2022-11-27T10:11:14;94281.78;;;5.77;52.60
8294;BME280;4185;41.506;24.938;2022-11-27T10:13:54;94278.88;;;5.84;52.23
8294;BME280;4185;41.506;24.938;2022-11-27T10:16:30;94276.81;;;5.88;53.31
8294;BME280;4185;41.506;24.938;2022-11-27T10:19:04;94266.97;;;5.94;52.69
8294;BME280;4185;41.506;24.938;2022-11-27T10:21:39;94260.28;;;5.98;52.28
8294;BME280;4185;41.506;24.938;2022-11-27T10:24:17;94259.53;;;5.98;51.47
8294;BME280;4185;41.506;24.938;2022-11-27T10:26:47;94260.97;;;6.11;52.05
8294;BME280;4185;41.506;24.938;2022-11-27T10:29:26;94259.28;;;6.05;50.92
8294;BME280;4185;41.506;24.938;2022-11-27T10:32:00;94252.38;;;6.04;51.43
8294;BME280;4185;41.506;24.938;2022-11-27T10:34:37;94256.59;;;6.05;51.78
8294;BME280;4185;41.506;24.938;2022-11-27T10:37:07;94257.03;;;6.03;51.34
8294;BME280;4185;41.506;24.938;2022-11-27T10:39:43;94243.66;;;6.00;50.77
8294;BME280;4185;41.506;24.938;2022-11-27T10:42:14;94239.22;;;6.06;53.62
8294;BME280;4185;41.506;24.938;2022-11-27T10:44:45;94237.19;;;6.19;52.49
8294;BME280;4185;41.506;24.938;2022-11-27T10:47:15;94245.38;;;6.28;52.47
8294;BME280;4185;41.506;24.938;2022-11-27T10:49:45;94244.88;;;6.21;50.62
8294;BME280;4185;41.506;24.938;2022-11-27T10:52:14;94243.47;;;6.16;51.41
8294;BME280;4185;41.506;24.938;2022-11-27T10:54:42;94237.47;;;6.12;51.04
8294;BME280;4185;41.506;24.938;2022-11-27T10:57:22;94225.16;;;6.11;51.75
8294;BME280;4185;41.506;24.938;2022-11-27T11:00:00;94229.66;;;6.14;51.73
8294;BME280;4185;41.506;24.938;2022-11-27T11:02:32;94230.56;;;6.11;51.33
8294;BME280;4185;41.506;24.938;2022-11-27T11:05:09;94225.41;;;6.04;51.75
8294;BME280;4185;41.506;24.938;2022-11-27T11:07:36;94226.28;;;6.01;51.07
8294;BME280;4185;41.506;24.938;2022-11-27T11:10:16;94222.41;;;6.02;51.32
8294;BME280;4185;41.506;24.938;2022-11-27T11:12:48;94217.50;;;6.09;51.91
8294;BME280;4185;41.506;24.938;2022-11-27T11:15:15;94209.63;;;6.15;51.16
8294;BME280;4185;41.506;24.938;2022-11-27T11:17:43;94213.06;;;6.15;50.81
8294;BME280;4185;41.506;24.938;2022-11-27T11:20:17;94208.50;;;6.03;50.47
8294;BME280;4185;41.506;24.938;2022-11-27T11:22:45;94203.59;;;6.11;51.26
8294;BME280;4185;41.506;24.938;2022-11-27T11:25:15;94199.44;;;6.19;52.08
8294;BME280;4185;41.506;24.938;2022-11-27T11:27:44;94206.25;;;6.33;50.85
8294;BME280;4185;41.506;24.938;2022-11-27T11:30:20;94200.75;;;6.36;50.54
8294;BME280;4185;41.506;24.938;2022-11-27T11:32:49;94194.63;;;6.36;49.83
8294;BME280;4185;41.506;24.938;2022-11-27T11:35:25;94194.44;;;6.30;49.68
8294;BME280;4185;41.506;24.938;2022-11-27T11:37:54;94201.50;;;6.37;48.89
8294;BME280;4185;41.506;24.938;2022-11-27T11:40:24;94190.91;;;6.42;49.33
8294;BME280;4185;41.506;24.938;2022-11-27T11:42:54;94200.16;;;6.41;49.28
8294;BME280;4185;41.506;24.938;2022-11-27T11:45:24;94192.38;;;6.43;49.42
8294;BME280;4185;41.506;24.938;2022-11-27T11:47:54;94184.69;;;6.33;49.56
8294;BME280;4185;41.506;24.938;2022-11-27T11:50:29;94190.66;;;6.28;49.39
8294;BME280;4185;41.506;24.938;2022-11-27T11:53:01;94186.91;;;6.25;49.70
8294;BME280;4185;41.506;24.938;2022-11-27T11:55:35;94178.06;;;6.25;50.10
8294;BME280;4185;41.506;24.938;2022-11-27T11:58:20;94177.59;;;6.26;50.42
8294;BME280;4185;41.506;24.938;2022-11-27T12:00:56;94185.63;;;6.39;50.82
8294;BME280;4185;41.506;24.938;2022-11-27T12:03:44;94182.34;;;6.44;49.86
8294;BME280;4185;41.506;24.938;2022-11-27T12:06:34;94169.31;;;6.42;48.65
8294;BME280;4185;41.506;24.938;2022-11-27T12:09:13;94180.88;;;6.43;48.83
8294;BME280;4185;41.506;24.938;2022-11-27T12:11:48;94171.69;;;6.40;48.97
8294;BME280;4185;41.506;24.938;2022-11-27T12:14:26;94172.31;;;6.44;49.24
8294;BME280;4185;41.506;24.938;2022-11-27T12:17:05;94174.13;;;6.47;50.16
8294;BME280;4185;41.506;24.938;2022-11-27T12:20:08;94164.22;;;6.44;49.80
8294;BME280;4185;41.506;24.938;2022-11-27T12:22:59;94163.59;;;6.40;49.20
8294;BME280;4185;41.506;24.938;2022-11-27T12:25:34;94165.72;;;6.45;48.69
8294;BME280;4185;41.506;24.938;2022-11-27T12:28:13;94168.69;;;6.38;49.16
8294;BME280;4185;41.506;24.938;2022-11-27T12:30:50;94165.06;;;6.32;49.23
8294;BME280;4185;41.506;24.938;2022-11-27T12:33:32;94164.94;;;6.36;49.12
8294;BME280;4185;41.506;24.938;2022-11-27T12:36:08;94167.78;;;6.41;49.82
8294;BME280;4185;41.506;24.938;2022-11-27T12:38:48;94166.94;;;6.53;49.68
8294;BME280;4185;41.506;24.938;2022-11-27T12:41:34;94164.38;;;6.50;48.68
8294;BME280;4185;41.506;24.938;2022-11-27T12:44:16;94178.31;;;6.48;48.49
8294;BME280;4185;41.506;24.938;2022-11-27T12:46:51;94173.31;;;6.38;48.69
8294;BME280;4185;41.506;24.938;2022-11-27T12:49:23;94177.22;;;6.37;49.16
8294;BME280;4185;41.506;24.938;2022-11-27T12:51:55;94179.47;;;6.38;49.61
8294;BME280;4185;41.506;24.938;2022-11-27T12:54:28;94161.81;;;6.46;49.29
8294;BME280;4185;41.506;24.938;2022-11-27T12:56:59;94150.09;;;6.40;48.49
8294;BME280;4185;41.506;24.938;2022-11-27T12:59:30;94160.47;;;6.42;48.46
8294;BME280;4185;41.506;24.938;2022-11-27T13:02:04;94163.66;;;6.49;48.32
8294;BME280;4185;41.506;24.938;2022-11-27T13:04:42;94153.72;;;6.46;48.33
8294;BME280;4185;41.506;24.938;2022-11-27T13:07:16;94157.38;;;6.52;48.43
8294;BME280;4185;41.506;24.938;2022-11-27T13:09:49;94154.97;;;6.54;49.35
8294;BME280;4185;41.506;24.938;2022-11-27T13:12:23;94150.06;;;6.62;49.00
8294;BME280;4185;41.506;24.938;2022-11-27T13:14:57;94151.38;;;6.57;49.69
8294;BME280;4185;41.506;24.938;2022-11-27T13:17:32;94154.72;;;6.61;49.26
8294;BME280;4185;41.506;24.938;2022-11-27T13:20:02;94160.13;;;6.61;49.03
8294;BME280;4185;41.506;24.938;2022-11-27T13:22:31;94160.06;;;6.52;48.77
8294;BME280;4185;41.506;24.938;2022-11-27T13:25:01;94152.06;;;6.40;48.79
8294;BME280;4185;41.506;24.938;2022-11-27T13:27:29;94150.38;;;6.33;49.01
8294;BME280;4185;41.506;24.938;2022-11-27T13:30:02;94140.66;;;6.36;48.91
8294;BME280;4185;41.506;24.938;2022-11-27T13:32:31;94142.59;;;6.35;49.34
8294;BME280;4185;41.506;24.938;2022-11-27T13:35:02;94136.94;;;6.42;49.20
8294;BME280;4185;41.506;24.938;2022-11-27T13:37:34;94130.00;;;6.41;48.69
8294;BME280;4185;41.506;24.938;2022-11-27T13:40:04;94135.16;;;6.48;48.87
8294;BME280;4185;41.506;24.938;2022-11-27T13:42:33;94124.09;;;6.55;49.39